Startpagina
METAR-TAF:

METAR-TAF

Vliegvelden :

Dallas/Fort Worth International Airport

Dallas / Fort Worth, Texas, Verenigde Staten

breedte: 32-53-49N, lengte: 097-01-19W, hoogte: 183 m

Actueel weer

Dit bericht is 58 minuten geleden gemaakt, om 02:53 UTC
Wind 7 kt uit het noordnoordoosten
Temperatuur 28°C
Vochtigheid 55%
Druk 1016 hPa
Zicht: 16.1 km
Onbewolkt

METAR: KDFW 210253Z 02007KT 10SM CLR 28/18 A2999 RMK AO2 SLP147 T02780183 53021

Tijdstip: 22:51 (03:51 UTC)

Verwachting

Dit bericht is 40 minuten geleden gemaakt, om 03:11 UTC
Verwachting geldig van 21 om 03 UTC tot 22 om 06 UTC
Wind 6 kt uit het noorden
Zicht: 10 km
Onbewolkt
Van 21 om 1800 UTC
Wind 7 kt uit het noordnoordoosten
Zicht: 10 km
Verspreide wolken op 25000 ft

TAF: KDFW 210311Z 2103/2206 36006KT P6SM SKC FM211800 02007KT P6SM SCT250

Waarnemingen en weersverwachtingen van meer dan 4000 vliegvelden (METAR en TAF).

De beschikbare stations zijn de gele en rode punten op de kaart.

Ga met uw muis naar het station om de naam te zien.

Klik dan om waarnemingen en weersverwachtingen te zien.

kaart wijzigen: klik op de groene knoppen met een zwart kruis om in te zoomen, op de groene knop met een streepje om uit te zoomen of op de groene pijlen voor aangrenzende kaarten.


METAR-TAF: